createdAt,value
2019-03-26T00:00:58.392Z,51.31
2019-03-26T00:01:58.391Z,51.39
2019-03-26T00:02:58.358Z,51.39
2019-03-26T00:04:05.891Z,51.39
2019-03-26T00:04:59.342Z,51.41
2019-03-26T00:05:58.333Z,51.28
2019-03-26T00:06:58.320Z,51.28
2019-03-26T00:07:58.326Z,51.41
2019-03-26T00:08:58.298Z,50.97
2019-03-26T00:09:58.289Z,51.18
2019-03-26T00:10:58.282Z,51.10
2019-03-26T00:11:58.273Z,51.10
2019-03-26T00:12:58.264Z,51.10
2019-03-26T00:14:05.795Z,51.39
2019-03-26T00:15:05.301Z,51.41
2019-03-26T00:16:05.763Z,51.62
2019-03-26T00:17:06.265Z,51.92
2019-03-26T00:18:05.271Z,50.99
2019-03-26T00:19:05.736Z,50.99
2019-03-26T00:20:05.712Z,51.31
2019-03-26T00:20:58.171Z,50.89
2019-03-26T00:21:58.165Z,51.43
2019-03-26T00:22:58.157Z,51.43
2019-03-26T00:23:58.154Z,51.54
2019-03-26T00:24:58.128Z,50.92
2019-03-26T00:25:58.118Z,51.23
2019-03-26T00:26:58.109Z,51.64
2019-03-26T00:27:58.112Z,51.84
2019-03-26T00:28:58.114Z,51.54
2019-03-26T00:29:58.085Z,51.31
2019-03-26T05:00:45.284Z,51.55
2019-03-26T05:01:45.251Z,51.65
2019-03-26T05:02:45.240Z,52.80
2019-03-26T05:03:45.231Z,52.67
2019-03-26T05:04:45.223Z,52.80
2019-03-26T05:05:45.219Z,52.48
2019-03-26T05:06:45.248Z,52.38
2019-03-26T05:07:45.189Z,52.56
2019-03-26T05:08:45.180Z,52.36
2019-03-26T05:09:52.723Z,52.77
2019-03-26T05:10:52.690Z,52.46
2019-03-26T05:11:52.751Z,52.33
2019-03-26T05:12:45.145Z,52.75
2019-03-26T05:13:45.131Z,52.54
2019-03-26T05:14:45.118Z,52.46
2019-03-26T05:15:45.107Z,52.33
2019-03-26T05:16:45.116Z,52.64
2019-03-26T05:17:45.109Z,52.44
2019-03-26T05:18:45.075Z,52.51
2019-03-26T05:19:45.076Z,52.44
2019-03-26T05:20:45.054Z,52.62
2019-03-26T05:21:45.054Z,52.72
2019-03-26T05:22:45.056Z,52.41
2019-03-26T05:23:45.047Z,52.20
2019-03-26T05:24:45.018Z,52.20
2019-03-26T05:25:45.007Z,53.03
2019-03-26T05:26:44.994Z,52.83
2019-03-26T05:27:45.881Z,52.72
2019-03-26T05:28:44.973Z,52.72
2019-03-26T05:29:44.980Z,52.10
2019-03-26T05:30:45.671Z,51.48
2019-03-26T05:31:45.220Z,52.10
2019-03-26T05:32:44.926Z,51.37
2019-03-26T05:33:44.938Z,51.89
2019-03-26T05:34:44.908Z,51.66
2019-03-26T05:35:44.901Z,51.87
2019-03-26T05:36:51.163Z,52.08
2019-03-26T05:37:46.652Z,52.08
2019-03-26T05:38:44.865Z,51.87
2019-03-26T05:39:44.868Z,51.87
2019-03-26T05:40:44.839Z,51.76
2019-03-26T05:41:44.845Z,51.35
2019-03-26T05:42:44.915Z,51.66
2019-03-26T05:43:45.136Z,51.66
2019-03-26T05:44:45.475Z,51.35
2019-03-26T05:45:44.793Z,51.35
2019-03-26T05:46:44.780Z,51.56
2019-03-26T05:47:44.765Z,51.45
2019-03-26T05:48:44.760Z,51.33
2019-03-26T05:49:44.767Z,51.35
2019-03-26T05:50:44.739Z,51.12
2019-03-26T05:51:44.723Z,51.12
2019-03-26T05:52:44.731Z,50.92
2019-03-26T05:53:44.719Z,51.54
2019-03-26T05:54:44.713Z,51.33
2019-03-26T05:55:45.192Z,51.20
2019-03-26T05:56:44.680Z,51.43
2019-03-26T05:57:44.785Z,51.43
2019-03-26T05:58:44.668Z,51.74
2019-03-26T05:59:44.653Z,51.64
2019-03-26T06:00:44.647Z,51.54
2019-03-26T06:01:44.616Z,51.51
2019-03-26T06:02:44.636Z,51.41
2019-03-26T06:03:44.641Z,51.43
2019-03-26T06:04:45.139Z,51.51
2019-03-26T06:05:44.574Z,51.51
2019-03-26T06:06:45.141Z,51.74
2019-03-26T06:07:44.560Z,51.62
2019-03-26T06:08:45.961Z,51.41
2019-03-26T06:09:45.439Z,51.41
2019-03-26T06:10:45.151Z,51.41
2019-03-26T06:11:44.520Z,51.62
2019-03-26T06:12:53.353Z,51.51
2019-03-26T06:13:45.855Z,51.51
2019-03-26T06:14:44.497Z,51.41
2019-03-26T06:15:45.180Z,51.82
2019-03-26T06:16:44.468Z,51.41
2019-03-26T06:17:44.572Z,51.51
2019-03-26T06:18:44.446Z,51.41
2019-03-26T06:19:44.441Z,51.31
2019-03-26T06:20:44.530Z,51.62
2019-03-26T06:21:44.465Z,51.92
2019-03-26T06:22:44.395Z,51.41
2019-03-26T06:23:44.429Z,50.99
2019-03-26T06:24:44.386Z,50.99
2019-03-26T06:25:44.603Z,50.97
2019-03-26T06:26:44.495Z,51.31
2019-03-26T06:27:44.376Z,51.07
2019-03-26T06:28:44.350Z,50.87
2019-03-26T06:29:44.404Z,50.66
2019-03-26T06:30:44.327Z,50.76
2019-03-26T06:31:44.292Z,50.66
2019-03-26T06:32:44.357Z,50.97
2019-03-26T06:34:45.281Z,51.18
2019-03-26T06:35:50.696Z,51.05
2019-03-26T06:36:45.246Z,50.64
2019-03-26T06:37:44.242Z,50.12
2019-03-26T06:38:59.290Z,50.23
2019-03-26T06:44:56.068Z,49.71
2019-03-26T06:59:15.612Z,49.90
2019-03-26T07:00:15.592Z,49.48
2019-03-26T07:01:15.577Z,49.17
2019-03-26T07:02:15.569Z,49.35
2019-03-26T07:03:15.581Z,49.15
2019-03-26T07:04:15.549Z,49.15
2019-03-26T07:05:15.537Z,49.15
2019-03-26T07:06:15.529Z,49.13
2019-03-26T07:07:15.531Z,49.05
2019-03-26T07:08:15.532Z,49.44
2019-03-26T07:09:15.492Z,49.33
2019-03-26T07:10:15.498Z,48.92
2019-03-26T07:11:15.487Z,49.85
2019-03-26T07:12:15.473Z,49.13
2019-03-26T07:13:15.470Z,50.05
2019-03-26T07:14:15.434Z,49.64
2019-03-26T07:15:15.424Z,49.23
2019-03-26T07:16:15.415Z,49.54
2019-03-26T07:17:15.423Z,49.52
2019-03-26T07:18:15.394Z,49.52
2019-03-26T07:19:15.400Z,49.10
2019-03-26T07:20:15.372Z,49.10
2019-03-26T07:21:15.361Z,49.10
2019-03-26T07:22:15.355Z,49.52
2019-03-26T07:23:15.356Z,49.29
2019-03-26T07:24:15.349Z,49.18
2019-03-26T07:25:15.317Z,49.08
2019-03-26T07:26:22.837Z,48.26
2019-03-26T07:27:22.835Z,48.34
2019-03-26T07:28:22.897Z,49.06
2019-03-26T07:29:22.846Z,47.92
2019-03-26T07:30:22.810Z,48.44
2019-03-26T07:31:15.251Z,48.03
2019-03-26T07:32:15.246Z,48.54
2019-03-26T07:33:15.230Z,48.85
2019-03-26T07:34:15.221Z,48.65
2019-03-26T07:35:15.224Z,48.85
2019-03-26T07:36:15.202Z,48.54
2019-03-26T07:37:15.188Z,48.88
2019-03-26T07:38:15.177Z,48.24
2019-03-26T07:39:15.195Z,49.39
2019-03-26T07:40:15.156Z,49.26
2019-03-26T07:41:15.144Z,49.16
2019-03-26T07:42:15.142Z,49.37
2019-03-26T07:43:15.125Z,48.44
2019-03-26T07:44:15.105Z,48.65
2019-03-26T07:45:15.132Z,48.85
2019-03-26T07:46:15.108Z,48.72
2019-03-26T07:47:15.095Z,48.72
2019-03-26T07:48:15.064Z,48.93
2019-03-26T07:49:15.052Z,48.52
2019-03-26T07:50:15.058Z,48.39
2019-03-26T08:09:31.833Z,45.10
2019-03-26T08:16:49.277Z,44.35
2019-03-26T08:17:49.222Z,44.45
2019-03-26T08:18:49.210Z,44.02
2019-03-26T08:19:49.206Z,44.12
2019-03-26T08:20:49.187Z,44.31
2019-03-26T08:21:49.179Z,44.32
2019-03-26T08:22:49.186Z,44.61
2019-03-26T08:23:49.159Z,45.12
2019-03-26T08:24:49.159Z,45.25
2019-03-26T08:25:49.154Z,44.43
2019-03-26T08:26:51.921Z,45.88
2019-03-26T08:27:49.122Z,45.98
2019-03-26T08:28:49.101Z,45.78
2019-03-26T08:29:49.107Z,46.41
2019-03-26T08:30:50.310Z,46.21
2019-03-26T08:31:49.078Z,47.05
2019-03-26T08:32:49.077Z,47.35
2019-03-26T08:33:49.048Z,46.97
2019-03-26T08:34:49.042Z,46.97
2019-03-26T08:35:49.035Z,47.38
2019-03-26T08:36:49.021Z,47.19
2019-03-26T08:37:49.029Z,47.19
2019-03-26T08:38:48.993Z,47.30
2019-03-26T08:39:48.986Z,48.14
2019-03-26T08:40:48.976Z,48.14
2019-03-26T08:41:48.964Z,48.11
2019-03-26T08:42:48.960Z,47.60
2019-03-26T08:43:48.966Z,47.30
2019-03-26T08:44:48.934Z,47.17
2019-03-26T08:45:48.929Z,47.17
2019-03-26T08:46:48.914Z,47.05
2019-03-26T08:47:48.901Z,45.92
2019-03-26T08:48:48.906Z,46.53
2019-03-26T08:49:48.904Z,46.03
2019-03-26T08:50:48.866Z,46.74
2019-03-26T08:51:48.869Z,47.27
2019-03-26T08:52:48.847Z,47.48
2019-03-26T08:53:48.835Z,47.38
2019-03-26T08:54:48.891Z,47.27
2019-03-26T08:55:48.815Z,47.27
2019-03-26T08:56:48.805Z,47.17
2019-03-26T08:57:48.804Z,47.27
2019-03-26T08:58:48.781Z,47.60
2019-03-26T08:59:48.786Z,46.89
2019-03-26T09:00:48.767Z,47.40
2019-03-26T09:01:48.764Z,47.60
2019-03-26T09:02:48.752Z,48.01
2019-03-26T09:03:48.731Z,47.30
2019-03-26T09:04:48.721Z,46.25
2019-03-26T09:05:48.710Z,46.56
2019-03-26T09:06:48.737Z,46.76
2019-03-26T09:07:48.706Z,46.25
2019-03-26T09:08:48.682Z,46.25
2019-03-26T09:09:48.671Z,46.25
2019-03-26T09:10:51.908Z,45.84
2019-03-26T09:11:48.666Z,46.53
2019-03-26T09:12:48.637Z,46.33
2019-03-26T09:13:48.625Z,45.72
2019-03-26T09:14:48.622Z,45.59
2019-03-26T09:15:48.612Z,46.11
2019-03-26T09:16:48.594Z,45.78
2019-03-26T09:17:48.605Z,45.25
2019-03-26T09:18:48.572Z,44.84
2019-03-26T09:19:48.559Z,44.08
2019-03-26T09:20:48.555Z,44.38
2019-03-26T09:21:48.539Z,44.16
2019-03-26T09:22:48.526Z,44.78
2019-03-26T09:23:48.529Z,44.46
2019-03-26T09:24:48.504Z,44.57
2019-03-26T09:25:48.493Z,44.55
2019-03-26T09:26:48.500Z,44.24
2019-03-26T09:27:48.498Z,44.43
2019-03-26T09:28:48.464Z,44.24
2019-03-26T09:29:48.454Z,44.22
2019-03-26T09:30:48.440Z,44.32
2019-03-26T09:31:48.429Z,44.24
2019-03-26T09:32:48.420Z,44.12
2019-03-26T09:33:48.431Z,44.31
2019-03-26T09:34:48.406Z,44.04
2019-03-26T09:35:48.388Z,42.98
2019-03-26T09:36:48.378Z,42.23
2019-03-26T09:37:48.371Z,41.56
2019-03-26T09:38:48.374Z,41.42
2019-03-26T09:39:48.352Z,40.98
2019-03-26T09:40:48.333Z,41.36
2019-03-26T09:41:48.335Z,40.95
2019-03-26T09:42:48.307Z,40.35
2019-03-26T09:43:48.322Z,41.36
2019-03-26T09:44:48.287Z,41.77
2019-03-26T09:45:48.278Z,41.56
2019-03-26T09:46:55.802Z,40.86
2019-03-26T09:47:55.794Z,41.36
2019-03-26T09:48:55.791Z,41.04
2019-03-26T09:49:55.781Z,41.06
2019-03-26T09:50:55.757Z,41.06
2019-03-26T09:51:48.218Z,41.69
2019-03-26T09:52:48.199Z,42.21
2019-03-26T09:53:48.189Z,42.96
2019-03-26T09:54:48.196Z,43.81
2019-03-26T09:55:48.189Z,44.04
2019-03-26T09:56:48.165Z,44.59
2019-03-26T09:57:48.151Z,45.54
2019-03-26T09:58:48.142Z,46.17
2019-03-26T09:59:48.126Z,46.22
2019-03-26T10:00:48.275Z,46.75
2019-03-26T10:01:48.128Z,46.77
2019-03-26T10:02:48.099Z,47.81
2019-03-26T10:03:48.089Z,48.16
2019-03-26T10:04:48.089Z,48.26
2019-03-26T10:05:48.060Z,48.28
2019-03-26T10:06:48.050Z,48.82
2019-03-26T10:07:48.041Z,48.84
2019-03-26T10:08:52.636Z,48.94
2019-03-26T10:09:48.017Z,49.17
2019-03-26T10:10:48.029Z,48.94
2019-03-26T10:11:48.001Z,48.33
2019-03-26T10:12:47.988Z,48.31
2019-03-26T10:13:47.979Z,47.60
2019-03-26T10:14:47.964Z,48.00
2019-03-26T10:15:47.975Z,47.16
2019-03-26T10:16:47.940Z,47.27
2019-03-26T10:17:47.935Z,47.16
2019-03-26T10:18:47.920Z,46.73
2019-03-26T10:19:47.935Z,47.14
2019-03-26T10:20:47.927Z,47.04
2019-03-26T10:21:47.902Z,47.02
2019-03-26T10:22:47.879Z,47.04
2019-03-26T10:23:47.871Z,47.14
2019-03-26T10:24:47.850Z,46.94
2019-03-26T10:25:47.844Z,47.37
2019-03-26T10:26:47.851Z,47.90
2019-03-26T10:27:47.822Z,47.92
2019-03-26T10:28:47.819Z,47.61
2019-03-26T10:29:47.822Z,48.35
2019-03-26T10:30:47.790Z,48.68
2019-03-26T10:31:47.774Z,48.58
2019-03-26T10:32:47.770Z,48.71
2019-03-26T10:33:47.761Z,48.81
2019-03-26T10:34:47.749Z,48.83
2019-03-26T10:35:47.763Z,49.04
2019-03-26T10:36:47.723Z,48.75
2019-03-26T10:37:47.712Z,48.85
2019-03-26T10:38:47.701Z,48.85
2019-03-26T10:39:47.689Z,49.06
2019-03-26T10:40:47.699Z,48.96
2019-03-26T10:41:47.673Z,49.06
2019-03-26T10:42:47.672Z,49.06
2019-03-26T10:43:47.657Z,49.06
2019-03-26T10:44:47.640Z,48.96
2019-03-26T10:45:47.649Z,49.57
2019-03-26T10:46:47.632Z,49.57
2019-03-26T10:47:47.608Z,49.06
2019-03-26T10:48:47.592Z,48.75
2019-03-26T10:49:47.587Z,48.44
2019-03-26T10:50:47.603Z,48.34
2019-03-26T10:51:47.560Z,48.65
2019-03-26T10:52:47.557Z,48.14
2019-03-26T10:53:47.545Z,48.24
2019-03-26T10:54:47.539Z,48.75
2019-03-26T10:55:47.524Z,49.59
2019-03-26T10:56:47.533Z,49.08
2019-03-26T10:57:47.498Z,48.88
2019-03-26T10:58:47.488Z,48.98
2019-03-26T10:59:47.477Z,48.88
2019-03-26T11:00:47.483Z,48.98
2019-03-26T11:01:47.459Z,49.08
2019-03-26T11:02:47.508Z,49.39
2019-03-26T11:03:47.437Z,49.39
2019-03-26T11:04:47.429Z,48.90
2019-03-26T11:05:47.444Z,48.90
2019-03-26T11:06:47.410Z,48.90
2019-03-26T11:07:47.420Z,48.90
2019-03-26T11:08:47.410Z,48.88
2019-03-26T11:09:47.368Z,48.90
2019-03-26T11:10:47.365Z,49.10
2019-03-26T11:11:47.346Z,49.10
2019-03-26T11:12:47.347Z,49.10
2019-03-26T11:13:47.344Z,48.98
2019-03-26T11:14:47.322Z,48.36
2019-03-26T11:15:47.310Z,48.36
2019-03-26T11:16:47.308Z,48.36
2019-03-26T11:17:47.309Z,48.36
2019-03-26T11:18:47.277Z,48.67
2019-03-26T11:19:47.266Z,48.67
2019-03-26T11:20:47.250Z,48.47
2019-03-26T11:21:47.242Z,48.36
2019-03-26T11:22:47.247Z,48.36
2019-03-26T11:23:47.236Z,48.65
2019-03-26T11:24:47.217Z,48.67
2019-03-26T11:25:47.200Z,48.16
2019-03-26T11:26:47.188Z,48.34
2019-03-26T11:27:47.181Z,47.83
2019-03-26T11:28:47.167Z,48.01
2019-03-26T11:29:47.170Z,48.11
2019-03-26T11:30:47.150Z,47.58
2019-03-26T11:31:47.132Z,47.38
2019-03-26T11:32:47.127Z,47.53
2019-03-26T11:33:47.132Z,46.39
2019-03-26T11:34:47.118Z,45.53
2019-03-26T11:35:47.105Z,45.72
2019-03-26T11:36:47.090Z,44.67
2019-03-26T11:37:47.075Z,44.12
2019-03-26T11:38:47.060Z,43.90
2019-03-26T11:39:47.076Z,43.98
2019-03-26T11:40:47.039Z,44.26
2019-03-26T11:41:47.030Z,43.63
2019-03-26T11:42:47.068Z,42.90
2019-03-26T11:43:47.005Z,43.51
2019-03-26T11:44:47.006Z,42.88
2019-03-26T11:45:47.014Z,43.38
2019-03-26T11:46:46.981Z,43.37
2019-03-26T11:47:46.971Z,43.44
2019-03-26T11:48:46.948Z,42.94
2019-03-26T11:49:46.947Z,42.82
2019-03-26T11:50:46.949Z,42.51
2019-03-26T11:51:46.925Z,42.39
2019-03-26T11:52:46.913Z,42.29
2019-03-26T11:53:46.895Z,42.49
2019-03-26T11:54:46.889Z,42.90
2019-03-26T11:55:46.893Z,43.51
2019-03-26T11:56:46.867Z,43.29
2019-03-26T11:57:46.854Z,42.98
2019-03-26T11:58:46.842Z,42.98
2019-03-26T11:59:46.839Z,43.18
2019-03-26T12:00:46.822Z,43.29
2019-03-26T12:01:46.824Z,42.86
2019-03-26T12:02:46.798Z,43.06
2019-03-26T12:03:54.329Z,43.37
2019-03-26T12:04:46.783Z,43.37
2019-03-26T12:05:46.773Z,42.86
2019-03-26T12:06:46.784Z,43.37
2019-03-26T12:07:46.753Z,43.55
2019-03-26T12:08:46.754Z,42.74
2019-03-26T12:09:47.032Z,42.76
2019-03-26T12:10:46.719Z,43.87
2019-03-26T12:11:46.703Z,42.86
2019-03-26T12:12:46.712Z,43.49
2019-03-26T12:13:46.683Z,43.99
2019-03-26T12:14:46.678Z,43.89
2019-03-26T12:15:47.009Z,43.99
2019-03-26T12:16:46.747Z,44.20
2019-03-26T12:17:46.665Z,43.89
2019-03-26T12:18:46.629Z,43.99
2019-03-26T12:19:46.626Z,43.98
2019-03-26T12:20:46.617Z,43.67
2019-03-26T12:21:46.605Z,43.98
2019-03-26T12:22:46.615Z,44.26
2019-03-26T12:23:46.581Z,44.06
2019-03-26T12:24:46.580Z,43.75
2019-03-26T12:25:46.695Z,43.43
2019-03-26T12:26:47.476Z,43.93
2019-03-26T12:27:46.546Z,43.73
2019-03-26T12:28:46.543Z,42.60
2019-03-26T12:29:46.519Z,42.58
2019-03-26T12:30:46.511Z,42.98
2019-03-26T12:31:46.495Z,42.47
2019-03-26T12:32:46.509Z,43.49
2019-03-26T12:33:46.481Z,43.61
2019-03-26T12:34:46.492Z,43.43
2019-03-26T12:35:46.460Z,43.85
2019-03-26T12:36:46.442Z,43.87
2019-03-26T12:37:46.464Z,44.38
2019-03-26T12:38:46.420Z,45.42
2019-03-26T12:39:58.968Z,45.74
2019-03-26T12:40:47.398Z,46.17
2019-03-26T12:41:46.402Z,45.89
2019-03-26T12:42:46.414Z,46.64
2019-03-26T12:43:46.387Z,47.17
2019-03-26T12:44:46.361Z,47.39
2019-03-26T12:45:46.382Z,47.70
2019-03-26T12:46:46.337Z,47.52
2019-03-26T12:47:46.324Z,48.38
2019-03-26T12:48:46.316Z,48.38
2019-03-26T12:49:46.321Z,48.91
2019-03-26T12:50:46.302Z,49.32
2019-03-26T12:51:46.305Z,48.63
2019-03-26T12:52:46.301Z,48.73
2019-03-26T12:53:46.257Z,48.65
2019-03-26T12:54:46.276Z,48.67
2019-03-26T12:55:46.240Z,49.08
2019-03-26T12:56:46.235Z,48.77
2019-03-26T12:57:46.219Z,48.77
2019-03-26T12:58:46.203Z,49.41
2019-03-26T12:59:46.195Z,49.00
2019-03-26T13:00:46.247Z,49.00
2019-03-26T13:01:46.239Z,49.10
2019-03-26T13:02:46.176Z,48.80
2019-03-26T13:03:46.159Z,49.00
2019-03-26T13:04:46.143Z,49.30
2019-03-26T13:05:46.164Z,49.00
2019-03-26T13:06:46.117Z,49.30
2019-03-26T13:07:46.131Z,48.82
2019-03-26T13:08:46.096Z,48.21
2019-03-26T13:09:46.089Z,48.18
2019-03-26T13:10:53.579Z,48.08
2019-03-26T13:11:47.079Z,47.86
2019-03-26T13:12:46.084Z,47.96
2019-03-26T13:13:46.059Z,48.16
2019-03-26T13:14:46.036Z,47.32
2019-03-26T13:15:46.022Z,47.09
2019-03-26T13:16:46.014Z,46.89
2019-03-26T13:17:46.010Z,46.79
2019-03-26T13:18:45.986Z,46.77
2019-03-26T13:19:45.999Z,47.20
2019-03-26T13:20:45.971Z,46.69
2019-03-26T13:21:45.984Z,46.89
2019-03-26T13:22:45.950Z,46.87
2019-03-26T13:23:45.959Z,47.08
2019-03-26T13:24:45.942Z,47.08
2019-03-26T13:25:45.912Z,47.49
2019-03-26T13:26:48.898Z,46.87
2019-03-26T13:27:45.891Z,47.08
2019-03-26T13:28:45.881Z,47.08
2019-03-26T13:29:45.885Z,46.97
2019-03-26T13:30:45.871Z,46.97
2019-03-26T13:31:45.849Z,47.09
2019-03-26T13:32:45.894Z,47.30
2019-03-26T13:33:45.853Z,47.30
2019-03-26T13:34:45.823Z,47.00
2019-03-26T13:35:45.842Z,46.89
2019-03-26T13:36:45.804Z,47.09
2019-03-26T13:37:45.789Z,47.30
2019-03-26T13:38:45.814Z,47.30
2019-03-26T13:39:45.777Z,47.30
2019-03-26T13:40:45.774Z,46.69
2019-03-26T13:41:45.744Z,46.77
2019-03-26T13:42:45.726Z,46.79
2019-03-26T13:43:45.736Z,46.79
2019-03-26T13:44:45.711Z,47.00
2019-03-26T13:45:45.716Z,47.02
2019-03-26T13:46:45.698Z,47.53
2019-03-26T13:47:45.677Z,47.86
2019-03-26T13:48:45.691Z,48.59
2019-03-26T13:49:45.655Z,48.51
2019-03-26T13:50:45.659Z,47.92
2019-03-26T13:51:45.629Z,49.35
2019-03-26T13:52:45.619Z,48.94
2019-03-26T13:53:45.608Z,48.94
2019-03-26T13:54:45.625Z,49.05
2019-03-26T13:55:45.606Z,49.46
2019-03-26T13:56:45.578Z,49.05
2019-03-26T13:57:45.580Z,48.33
2019-03-26T13:58:45.559Z,48.33
2019-03-26T13:59:48.816Z,48.54
2019-03-26T14:00:45.563Z,48.43
2019-03-26T14:01:45.536Z,47.69
2019-03-26T14:02:45.514Z,48.00
2019-03-26T14:03:45.501Z,47.57
2019-03-26T14:04:45.493Z,47.57
2019-03-26T14:05:45.498Z,47.98
2019-03-26T14:06:45.475Z,46.94
2019-03-26T14:07:45.467Z,47.45
2019-03-26T14:08:45.466Z,47.45
2019-03-26T14:09:45.476Z,47.14
2019-03-26T14:10:45.436Z,47.34
2019-03-26T14:11:45.419Z,47.55
2019-03-26T14:12:45.405Z,46.81
2019-03-26T14:13:45.420Z,46.81
2019-03-26T14:14:45.416Z,47.09
2019-03-26T14:15:45.371Z,46.89
2019-03-26T14:16:45.360Z,46.06
2019-03-26T14:17:45.362Z,46.06
2019-03-26T14:18:45.349Z,46.36
2019-03-26T14:19:45.349Z,46.18
2019-03-26T14:20:45.317Z,47.81
2019-03-26T14:21:45.312Z,47.30
2019-03-26T14:22:45.332Z,46.89
2019-03-26T14:23:45.282Z,46.89
2019-03-26T14:24:45.274Z,47.30
2019-03-26T14:25:45.260Z,47.09
2019-03-26T14:26:45.271Z,47.20
2019-03-26T14:27:45.254Z,46.79
2019-03-26T14:28:45.283Z,47.09
2019-03-26T14:29:45.219Z,46.36
2019-03-26T14:30:45.213Z,46.24
2019-03-26T14:31:45.197Z,45.94
2019-03-26T14:32:45.205Z,46.14
2019-03-26T14:33:45.179Z,45.40
2019-03-26T14:34:48.235Z,45.81
2019-03-26T14:35:46.158Z,45.50
2019-03-26T14:36:45.175Z,45.89
2019-03-26T14:37:51.046Z,45.15
2019-03-26T14:38:46.146Z,45.56
2019-03-26T14:39:45.109Z,45.87
2019-03-26T14:40:54.659Z,45.46
2019-03-26T14:41:46.088Z,45.76
2019-03-26T14:42:45.084Z,45.46
2019-03-26T14:43:45.066Z,45.76
2019-03-26T14:44:45.095Z,45.76
2019-03-26T14:45:45.056Z,46.30
2019-03-26T14:46:45.032Z,46.50
2019-03-26T14:47:45.054Z,46.91
2019-03-26T14:48:45.015Z,47.03
2019-03-26T14:49:45.029Z,46.85
2019-03-26T14:50:45.000Z,47.17
2019-03-26T14:51:44.981Z,47.58
2019-03-26T14:52:44.970Z,47.91
2019-03-26T14:53:44.977Z,48.63
2019-03-26T14:54:44.951Z,48.03
2019-03-26T14:55:44.955Z,48.47
2019-03-26T14:56:44.926Z,48.77
2019-03-26T14:57:44.930Z,48.69
2019-03-26T14:58:44.907Z,49.13
2019-03-26T14:59:44.917Z,49.02
2019-03-26T15:00:44.892Z,49.87
2019-03-26T15:01:44.873Z,49.25
2019-03-26T15:02:44.863Z,49.35
2019-03-26T15:03:44.865Z,49.38
2019-03-26T15:04:44.855Z,49.60
2019-03-26T15:05:44.853Z,49.30
2019-03-26T15:06:44.814Z,50.42
2019-03-26T15:07:44.809Z,49.83
2019-03-26T15:08:44.798Z,50.14
2019-03-26T15:09:44.787Z,50.78
2019-03-26T15:10:44.834Z,50.26
2019-03-26T15:11:44.772Z,50.09
2019-03-26T15:12:44.756Z,50.49
2019-03-26T15:13:44.743Z,51.21
2019-03-26T15:14:44.742Z,51.10
2019-03-26T15:15:44.742Z,51.21
2019-03-26T15:16:44.709Z,51.10
2019-03-26T15:17:44.705Z,51.01
2019-03-26T15:18:44.742Z,51.03
2019-03-26T15:19:44.677Z,51.13
2019-03-26T15:20:44.667Z,51.15
2019-03-26T15:21:44.694Z,51.03
2019-03-26T15:22:44.646Z,51.15
2019-03-26T15:23:44.679Z,51.36
2019-03-26T15:24:44.622Z,51.05
2019-03-26T15:25:44.639Z,51.05
2019-03-26T15:26:44.598Z,51.05
2019-03-26T15:27:44.611Z,50.95
2019-03-26T15:28:44.576Z,51.26
2019-03-26T15:29:44.603Z,50.74
2019-03-26T15:30:44.562Z,50.64
2019-03-26T15:31:44.550Z,51.15
2019-03-26T15:32:44.600Z,50.95
2019-03-26T15:33:44.520Z,51.05
2019-03-26T15:34:44.518Z,50.95
2019-03-26T15:35:44.508Z,50.97
2019-03-26T15:36:44.517Z,50.87
2019-03-26T15:37:44.499Z,50.97
2019-03-26T15:38:44.491Z,51.28
2019-03-26T15:39:44.458Z,51.26
2019-03-26T15:40:44.451Z,50.67
2019-03-26T15:41:44.462Z,50.97
2019-03-26T15:42:44.453Z,50.34
2019-03-26T15:43:44.419Z,50.13
2019-03-26T15:44:44.412Z,50.64
2019-03-26T15:45:44.397Z,50.85
2019-03-26T15:46:44.443Z,50.13
2019-03-26T15:47:44.401Z,50.02
2019-03-26T15:48:44.378Z,49.90
2019-03-26T15:49:44.444Z,49.59
2019-03-26T15:50:44.346Z,49.69
2019-03-26T15:51:44.329Z,49.59
2019-03-26T15:52:44.317Z,49.69
2019-03-26T15:53:44.325Z,49.69
2019-03-26T15:54:44.336Z,49.39
2019-03-26T15:55:44.293Z,49.57
2019-03-26T15:56:44.305Z,50.09
2019-03-26T15:57:44.272Z,50.18
2019-03-26T15:58:51.303Z,50.29
2019-03-26T15:59:51.282Z,49.47
2019-03-26T16:00:44.233Z,49.88
2019-03-26T16:01:51.752Z,48.85
2019-03-26T16:02:51.312Z,49.77
2019-03-26T16:03:51.740Z,48.85
2019-03-26T16:04:44.195Z,49.88
2019-03-26T16:16:03.967Z,49.51
2019-03-26T16:22:08.577Z,50.38
2019-03-26T16:23:30.275Z,50.61
2019-03-26T16:24:22.730Z,50.99
2019-03-26T16:37:01.633Z,50.71
2019-03-26T16:51:53.618Z,51.04
2019-03-26T16:53:19.220Z,51.25
2019-03-26T17:06:26.210Z,51.48
2019-03-26T17:13:11.887Z,52.33
2019-03-26T17:15:28.175Z,51.61
2019-03-26T17:18:13.249Z,52.43
2019-03-26T17:36:41.675Z,52.25
2019-03-26T17:38:59.574Z,51.94
2019-03-26T17:43:01.403Z,52.66
2019-03-26T17:49:24.288Z,52.66
2019-03-26T17:50:24.459Z,51.84
2019-03-26T17:52:42.925Z,51.84
2019-03-26T17:59:12.856Z,52.25
2019-03-26T18:00:12.530Z,52.27
2019-03-26T18:07:08.991Z,52.27
2019-03-26T18:18:18.722Z,52.19
2019-03-26T18:20:32.545Z,52.40
2019-03-26T18:21:27.039Z,52.91
2019-03-26T18:22:26.111Z,53.33
2019-03-26T18:27:06.827Z,51.89
2019-03-26T18:32:26.455Z,53.30
2019-03-26T18:36:11.204Z,52.29
2019-03-26T18:50:41.905Z,53.22
2019-03-26T18:52:47.280Z,53.02
2019-03-26T18:53:38.827Z,52.91
2019-03-26T19:01:01.162Z,53.12
2019-03-26T19:02:04.655Z,52.91
2019-03-26T19:04:38.347Z,52.40
2019-03-26T19:15:27.510Z,52.83
2019-03-26T19:16:49.502Z,52.94
2019-03-26T19:22:48.876Z,52.94
2019-03-26T19:25:27.019Z,52.86
2019-03-26T19:29:36.094Z,52.83
2019-03-26T19:37:48.701Z,53.06
2019-03-26T19:38:48.646Z,52.96
2019-03-26T19:40:58.585Z,53.48
2019-03-26T19:44:05.600Z,52.83
2019-03-26T19:48:42.500Z,53.35
2019-03-26T19:54:48.380Z,53.38
2019-03-26T19:55:45.355Z,53.04
2019-03-26T19:56:45.296Z,53.89
2019-03-26T19:57:45.311Z,53.17
2019-03-26T20:01:51.593Z,53.35
2019-03-26T20:04:12.419Z,53.35
2019-03-26T20:10:10.846Z,52.94
2019-03-26T20:11:08.230Z,53.35
2019-03-26T20:12:08.257Z,53.35
2019-03-26T20:14:54.073Z,53.45
2019-03-26T20:18:13.524Z,53.14
2019-03-26T20:23:46.508Z,53.14
2019-03-26T20:24:40.343Z,53.35
2019-03-26T20:28:05.444Z,52.63
2019-03-26T20:29:06.165Z,53.04
2019-03-26T20:30:05.739Z,53.04
2019-03-26T20:31:05.225Z,53.86
2019-03-26T21:07:37.106Z,53.19
2019-03-26T21:08:37.053Z,53.81
2019-03-26T21:35:38.704Z,53.11
2019-03-26T21:36:38.662Z,53.74
2019-03-26T22:11:49.609Z,53.30
2019-03-26T22:30:56.344Z,53.22
2019-03-26T22:31:56.207Z,53.63
2019-03-26T22:32:56.212Z,53.53
2019-03-26T22:33:56.204Z,53.71
2019-03-26T22:34:56.187Z,53.50
2019-03-26T22:35:56.287Z,53.50
2019-03-26T22:36:56.151Z,53.40
2019-03-26T22:37:56.143Z,53.19
2019-03-26T22:38:56.147Z,53.38
2019-03-26T22:39:56.120Z,53.17
2019-03-26T22:40:56.150Z,53.06
2019-03-26T22:41:56.093Z,53.48
2019-03-26T22:42:56.080Z,53.38
2019-03-26T22:43:56.082Z,53.27
2019-03-26T22:44:56.086Z,53.06
2019-03-26T22:45:56.097Z,53.38
2019-03-26T22:46:56.067Z,53.58
2019-03-26T22:47:56.066Z,53.66
2019-03-26T22:48:56.017Z,53.48
2019-03-26T22:49:57.433Z,53.48
2019-03-26T22:50:56.027Z,53.48
2019-03-26T22:51:55.987Z,53.58
2019-03-26T22:52:56.021Z,53.68
2019-03-26T22:53:55.979Z,53.48
2019-03-26T22:54:55.948Z,53.58
2019-03-26T22:55:55.958Z,53.48
2019-03-26T22:56:55.932Z,53.66
2019-03-26T22:57:55.922Z,53.68
2019-03-26T22:58:55.996Z,53.35
2019-03-26T22:59:55.900Z,53.45
2019-03-26T23:00:55.890Z,53.76
2019-03-26T23:01:55.904Z,53.04
2019-03-26T23:02:55.867Z,53.17
2019-03-26T23:03:55.884Z,52.94
2019-03-26T23:04:55.926Z,52.96
2019-03-26T23:05:55.859Z,52.94
2019-03-26T23:06:55.866Z,52.83
2019-03-26T23:07:55.813Z,52.94
2019-03-26T23:08:55.804Z,53.06
2019-03-26T23:09:55.821Z,53.04
2019-03-26T23:10:55.935Z,53.17
2019-03-26T23:11:55.847Z,52.96
2019-03-26T23:12:55.776Z,53.58
2019-03-26T23:13:55.780Z,53.27
2019-03-26T23:14:55.792Z,53.58
2019-03-26T23:15:55.805Z,53.58
2019-03-26T23:16:55.970Z,53.58
2019-03-26T23:19:21.929Z,53.30
2019-03-26T23:20:21.919Z,53.01
2019-03-26T23:21:21.923Z,53.83
2019-03-26T23:22:21.914Z,53.53
2019-03-26T23:23:21.886Z,53.32
2019-03-26T23:24:21.883Z,53.32
2019-03-26T23:25:21.862Z,53.22
2019-03-26T23:26:21.870Z,53.55
2019-03-26T23:27:21.865Z,53.42
2019-03-26T23:28:21.833Z,53.63